Time;durP1;ratioP1;P1;durP2;ratioP2;P2;SDS_P1;SDS_P2;PMS_P1;PMS_P2;Temp;Humidity;BMP_temperature;BMP_pressure;BME280_temperature;BME280_humidity;BME280_pressure;Samples;Min_cycle;Max_cycle;Signal;HPM_P1;HPM_P2
2023/06/15 00:01:52;;;;;;;4.00;2.10;;;24.40;61.80;;;;;;222599;1265;23648;-38
2023/06/15 00:06:57;;;;;;;4.90;2.00;;;24.40;61.70;;;;;;222455;1258;22630;-37
2023/06/15 00:12:01;;;;;;;2.00;1.50;;;24.40;61.70;;;;;;222035;1252;24252;-36
2023/06/15 00:17:08;;;;;;;2.90;2.20;;;24.40;60.70;;;;;;223436;1267;22534;-37
2023/06/15 00:22:14;;;;;;;7.20;2.10;;;24.50;61.40;;;;;;222482;1266;22526;-37
2023/06/15 00:27:18;;;;;;;4.10;1.70;;;24.50;61.40;;;;;;224098;1262;25617;-37
2023/06/15 00:32:23;;;;;;;5.00;2.10;;;24.50;61.20;;;;;;223659;1253;22530;-38
2023/06/15 00:37:27;;;;;;;2.10;2.00;;;24.50;61.10;;;;;;222491;1261;22526;-37
2023/06/15 00:42:32;;;;;;;2.10;1.60;;;24.40;61.50;;;;;;222341;1268;22643;-41
2023/06/15 00:47:39;;;;;;;2.30;1.60;;;24.40;61.30;;;;;;222531;1253;23155;-39
2023/06/15 00:52:45;;;;;;;1.90;1.80;;;24.30;61.30;;;;;;222706;1252;24260;-36
2023/06/15 00:57:49;;;;;;;2.30;2.10;;;24.30;61.30;;;;;;222844;1265;22526;-37
2023/06/15 01:02:56;;;;;;;2.80;2.10;;;24.30;61.30;;;;;;222290;1256;22538;-38
2023/06/15 01:08:05;;;;;;;4.30;2.10;;;24.30;61.30;;;;;;222572;1268;25221;-38
2023/06/15 01:13:12;;;;;;;2.20;2.00;;;24.30;61.30;;;;;;222597;1265;24216;-38
2023/06/15 01:18:20;;;;;;;3.60;2.00;;;24.30;61.30;;;;;;222552;1253;22513;-37
2023/06/15 01:23:43;;;;;;;2.10;1.90;;;24.30;61.70;;;;;;222573;1266;23222;-38
2023/06/15 01:28:50;;;;;;;2.40;1.70;;;24.30;61.30;;;;;;222805;1261;22504;-38
2023/06/15 01:33:55;;;;;;;2.70;1.80;;;24.30;61.10;;;;;;222489;1268;23352;-38
2023/06/15 01:39:00;;;;;;;1.70;1.60;;;24.30;61.00;;;;;;222603;1268;22798;-38
2023/06/15 01:44:05;;;;;;;2.60;1.80;;;24.30;61.40;;;;;;222489;1262;22511;-39
2023/06/15 01:49:10;;;;;;;2.10;1.60;;;24.30;61.40;;;;;;222724;1253;24295;-39
2023/06/15 01:54:14;;;;;;;1.60;1.50;;;24.30;61.00;;;;;;222575;1253;25275;-39
2023/06/15 01:59:18;;;;;;;2.10;1.80;;;24.20;61.00;;;;;;222671;1264;22620;-37
2023/06/15 02:04:23;;;;;;;2.20;1.70;;;24.20;60.40;;;;;;222600;1265;24203;-39
2023/06/15 02:09:27;;;;;;;1.80;1.70;;;24.30;60.90;;;;;;222426;1260;25393;-38
2023/06/15 02:14:31;;;;;;;3.50;1.70;;;24.20;60.90;;;;;;225126;1267;247549;-38
2023/06/15 02:19:36;;;;;;;1.60;1.50;;;24.30;60.60;;;;;;222072;1267;22984;-37
2023/06/15 02:24:40;;;;;;;1.80;1.70;;;24.30;60.50;;;;;;222683;1265;22493;-36
2023/06/15 02:29:44;;;;;;;2.20;2.00;;;24.30;60.90;;;;;;223092;1258;25591;-38
2023/06/15 02:34:48;;;;;;;2.00;1.80;;;24.30;60.50;;;;;;222259;1253;22533;-38
2023/06/15 02:39:53;;;;;;;1.90;1.80;;;24.20;60.50;;;;;;222581;1263;22780;-39
2023/06/15 02:44:58;;;;;;;1.90;1.80;;;24.20;60.50;;;;;;222249;1244;25621;-37
2023/06/15 02:50:04;;;;;;;2.80;1.60;;;24.20;60.50;;;;;;222363;1257;22636;-40
2023/06/15 02:55:13;;;;;;;1.60;1.50;;;24.20;60.60;;;;;;222644;1267;22542;-39
2023/06/15 03:00:19;;;;;;;1.70;1.60;;;24.20;60.50;;;;;;222579;1266;22633;-41
2023/06/15 03:05:30;;;;;;;1.60;1.50;;;24.10;60.50;;;;;;222416;1256;22792;-38
2023/06/15 03:10:35;;;;;;;1.70;1.30;;;24.10;60.90;;;;;;222509;1262;22531;-37
2023/06/15 03:15:39;;;;;;;2.80;1.80;;;24.10;60.80;;;;;;222567;1261;22511;-40
2023/06/15 03:20:46;;;;;;;1.60;1.50;;;24.10;60.40;;;;;;222395;1267;25323;-39
2023/06/15 03:25:52;;;;;;;1.80;1.70;;;24.10;60.30;;;;;;222514;1262;24211;-37
2023/06/15 03:31:05;;;;;;;2.00;1.90;;;24.10;60.40;;;;;;222595;1265;22508;-38
2023/06/15 03:36:10;;;;;;;1.70;1.60;;;24.10;60.40;;;;;;223008;1264;22607;-39
2023/06/15 03:41:14;;;;;;;1.80;1.70;;;24.10;60.50;;;;;;222780;1262;25457;-38
2023/06/15 03:46:19;;;;;;;1.70;1.60;;;24.10;60.40;;;;;;222909;1262;22553;-36
2023/06/15 03:51:26;;;;;;;1.90;1.80;;;24.10;60.70;;;;;;222416;1253;24167;-37
2023/06/15 03:56:31;;;;;;;2.10;2.00;;;24.10;60.20;;;;;;222658;1260;26603;-40
2023/06/15 04:01:35;;;;;;;2.00;1.90;;;24.10;60.20;;;;;;222603;1254;24174;-40
2023/06/15 04:06:45;;;;;;;2.00;1.90;;;24.10;60.20;;;;;;222808;1264;22501;-37
2023/06/15 04:11:52;;;;;;;1.90;1.70;;;24.10;60.20;;;;;;222690;1253;24215;-38
2023/06/15 04:16:58;;;;;;;1.80;1.60;;;24.10;60.20;;;;;;222396;1268;24219;-38
2023/06/15 04:22:03;;;;;;;1.70;1.60;;;24.10;60.10;;;;;;222407;1268;24038;-41
2023/06/15 04:27:12;;;;;;;1.40;1.30;;;24.10;60.00;;;;;;222680;1253;22568;-38
2023/06/15 04:32:17;;;;;;;1.80;1.70;;;24.10;60.30;;;;;;222516;1253;24219;-37
2023/06/15 04:37:23;;;;;;;3.90;1.60;;;24.10;59.90;;;;;;222441;1268;22598;-36
2023/06/15 04:42:32;;;;;;;2.10;1.70;;;24.10;59.60;;;;;;222623;1267;22505;-38
2023/06/15 04:47:38;;;;;;;1.60;1.50;;;24.10;59.90;;;;;;222739;1267;22513;-37
2023/06/15 04:52:43;;;;;;;1.90;1.60;;;24.10;59.40;;;;;;222681;1262;24283;-40
2023/06/15 04:57:47;;;;;;;1.90;1.80;;;24.10;60.00;;;;;;222618;1264;22640;-37
2023/06/15 05:02:52;;;;;;;1.90;1.80;;;24.10;59.90;;;;;;222623;1267;22507;-36
2023/06/15 05:07:56;;;;;;;1.80;1.70;;;24.10;59.90;;;;;;222354;1266;25620;-37
2023/06/15 05:13:03;;;;;;;1.50;1.40;;;24.10;59.90;;;;;;222431;1265;22869;-36
2023/06/15 05:18:07;;;;;;;1.60;1.60;;;24.10;59.90;;;;;;222416;1267;24340;-38
2023/06/15 05:23:13;;;;;;;1.80;1.60;;;24.10;59.80;;;;;;222449;1263;22510;-38
2023/06/15 05:28:18;;;;;;;1.50;1.40;;;24.10;60.00;;;;;;222585;1253;24962;-38
2023/06/15 05:33:23;;;;;;;1.60;1.40;;;24.10;59.80;;;;;;222606;1260;25317;-37
2023/06/15 05:38:28;;;;;;;6.20;1.70;;;24.10;59.90;;;;;;222372;1261;24051;-37
2023/06/15 05:43:32;;;;;;;2.10;1.60;;;24.20;60.00;;;;;;222339;1263;24216;-43
2023/06/15 05:48:36;;;;;;;1.90;1.60;;;24.30;60.00;;;;;;222360;1262;23880;-36
2023/06/15 05:53:48;;;;;;;6.90;3.40;;;24.40;59.70;;;;;;222598;1268;25448;-36
2023/06/15 05:58:56;;;;;;;2.60;2.00;;;24.30;60.50;;;;;;222182;1263;22521;-52
2023/06/15 06:04:00;;;;;;;6.60;1.70;;;24.30;60.50;;;;;;222574;1262;22508;-47
2023/06/15 06:09:05;;;;;;;5.60;2.10;;;24.40;60.80;;;;;;222512;1262;24180;-47
2023/06/15 06:14:09;;;;;;;3.60;1.60;;;24.40;60.70;;;;;;222128;1267;23979;-54
2023/06/15 06:19:13;;;;;;;3.60;2.10;;;24.40;61.00;;;;;;222250;1254;22601;-54
2023/06/15 06:24:19;;;;;;;2.70;2.20;;;24.40;60.80;;;;;;222304;1257;22602;-54
2023/06/15 06:29:26;;;;;;;6.70;1.90;;;24.50;60.90;;;;;;222493;1265;22565;-54
2023/06/15 06:34:30;;;;;;;3.40;2.00;;;24.50;61.00;;;;;;222487;1267;22527;-56
2023/06/15 06:39:34;;;;;;;6.30;2.20;;;24.50;61.00;;;;;;222389;1265;22506;-57
2023/06/15 06:44:39;;;;;;;3.90;2.60;;;24.60;60.80;;;;;;222042;1266;23907;-55
2023/06/15 06:49:43;;;;;;;3.40;2.30;;;24.60;60.40;;;;;;222508;1264;24334;-52
2023/06/15 06:54:48;;;;;;;5.40;2.30;;;24.70;60.40;;;;;;222851;1266;25245;-53
2023/06/15 06:59:52;;;;;;;8.20;2.30;;;24.50;61.10;;;;;;222568;1262;24084;-55
2023/06/15 07:04:56;;;;;;;6.60;2.40;;;24.60;60.80;;;;;;222408;1246;24195;-52
2023/06/15 07:10:01;;;;;;;6.40;2.40;;;24.50;60.70;;;;;;222439;1267;26656;-50
2023/06/15 07:15:06;;;;;;;10.60;2.70;;;24.60;60.10;;;;;;223876;1269;24183;-54
2023/06/15 07:20:10;;;;;;;8.80;2.20;;;24.70;59.80;;;;;;222460;1268;22507;-53
2023/06/15 07:25:14;;;;;;;4.30;2.30;;;24.70;60.20;;;;;;222933;1267;24096;-53
2023/06/15 07:30:20;;;;;;;1.90;1.70;;;24.60;60.00;;;;;;222717;1267;23931;-55
2023/06/15 07:35:25;;;;;;;4.80;2.20;;;24.60;59.80;;;;;;222474;1267;24630;-52
2023/06/15 07:40:29;;;;;;;2.40;1.80;;;24.60;60.20;;;;;;222634;1265;22767;-48
2023/06/15 07:45:33;;;;;;;4.60;2.10;;;24.60;59.90;;;;;;222731;1265;25207;-55
2023/06/15 07:50:37;;;;;;;4.50;2.30;;;24.70;59.70;;;;;;222562;1246;24197;-58
2023/06/15 07:55:44;;;;;;;12.80;2.60;;;24.70;59.60;;;;;;222851;1260;22756;-49
2023/06/15 08:00:48;;;;;;;8.90;2.10;;;24.60;60.00;;;;;;222826;1268;22511;-49
2023/06/15 08:05:52;;;;;;;3.90;2.50;;;24.60;60.50;;;;;;223986;1245;24286;-46
2023/06/15 08:10:57;;;;;;;2.50;2.00;;;24.70;60.00;;;;;;223526;1265;22505;-51
2023/06/15 08:16:02;;;;;;;5.90;3.80;;;24.70;59.50;;;;;;222674;1263;25543;-52
2023/06/15 08:21:06;;;;;;;5.70;1.90;;;24.70;59.40;;;;;;222633;1265;22651;-52
2023/06/15 08:26:11;;;;;;;4.70;2.70;;;24.70;59.50;;;;;;222671;1265;24154;-50
2023/06/15 08:31:15;;;;;;;2.80;2.20;;;24.60;59.50;;;;;;222597;1259;22585;-51
2023/06/15 08:36:19;;;;;;;5.60;2.20;;;24.60;59.60;;;;;;222638;1268;24187;-50
2023/06/15 08:41:26;;;;;;;6.80;2.40;;;24.70;59.50;;;;;;223011;1256;24212;-50
2023/06/15 08:46:30;;;;;;;3.20;2.20;;;24.60;59.40;;;;;;222438;1265;22642;-52
2023/06/15 08:51:36;;;;;;;3.30;2.50;;;24.60;59.20;;;;;;222566;1267;22511;-55
2023/06/15 08:56:41;;;;;;;5.20;3.00;;;24.60;59.60;;;;;;222749;1267;22783;-50
2023/06/15 09:01:46;;;;;;;3.90;2.40;;;24.70;59.00;;;;;;222593;1268;22779;-53
2023/06/15 09:06:50;;;;;;;4.70;2.20;;;24.80;58.80;;;;;;222866;1265;25310;-49
2023/06/15 09:11:54;;;;;;;2.90;2.30;;;24.70;58.90;;;;;;222636;1257;22565;-53
2023/06/15 09:16:58;;;;;;;3.90;2.20;;;24.80;58.90;;;;;;222441;1247;24094;-50
2023/06/15 09:22:07;;;;;;;4.00;2.10;;;24.80;58.40;;;;;;222384;1267;24156;-52
2023/06/15 09:27:17;;;;;;;3.10;2.30;;;24.80;58.40;;;;;;222415;1259;24799;-54
2023/06/15 09:32:21;;;;;;;2.40;2.00;;;24.80;58.30;;;;;;221315;1272;23887;-53
2023/06/15 09:37:29;;;;;;;2.30;2.10;;;24.80;58.30;;;;;;221081;1272;23274;-54
2023/06/15 09:42:35;;;;;;;4.90;2.60;;;24.80;58.20;;;;;;221317;1274;22565;-54
2023/06/15 09:47:40;;;;;;;2.60;2.40;;;24.70;59.30;;;;;;221721;1268;22604;-54
2023/06/15 09:52:49;;;;;;;4.60;2.40;;;24.80;58.80;;;;;;222661;1266;22506;-55
2023/06/15 09:57:54;;;;;;;2.90;2.40;;;24.90;58.80;;;;;;222616;1265;22550;-51
2023/06/15 10:03:01;;;;;;;2.50;2.30;;;24.90;58.20;;;;;;222457;1265;25266;-51
2023/06/15 10:08:08;;;;;;;5.00;2.50;;;25.00;58.20;;;;;;222728;1265;23507;-53
2023/06/15 10:13:22;;;;;;;5.10;2.10;;;25.00;57.80;;;;;;221182;1274;22514;-53
2023/06/15 10:18:28;;;;;;;4.30;2.50;;;24.90;57.80;;;;;;221226;1269;24253;-52
2023/06/15 10:23:33;;;;;;;2.20;2.10;;;25.00;57.90;;;;;;221170;1269;24406;-53
2023/06/15 10:29:08;;;;;;;2.10;1.90;;;25.00;57.80;;;;;;221444;1267;24196;-55
2023/06/15 10:34:37;;;;;;;2.50;2.40;;;25.00;57.70;;;;;;222610;1264;22479;-58
2023/06/15 10:39:45;;;;;;;6.80;2.50;;;25.10;57.70;;;;;;222951;1267;24817;-54
2023/06/15 10:44:49;;;;;;;5.00;2.40;;;25.00;58.40;;;;;;222682;1266;24320;-55
2023/06/15 10:49:55;;;;;;;3.30;2.60;;;24.90;58.30;;;;;;222670;1264;22517;-55
2023/06/15 10:55:07;;;;;;;2.80;2.50;;;25.00;58.30;;;;;;222717;1264;22523;-52
2023/06/15 11:00:12;;;;;;;3.00;2.70;;;24.90;58.60;;;;;;223055;1263;24033;-49
2023/06/15 11:05:21;;;;;;;2.70;2.20;;;25.00;58.60;;;;;;222324;1266;22518;-55
2023/06/15 11:10:31;;;;;;;3.40;2.80;;;25.00;58.80;;;;;;222792;1256;24222;-55
2023/06/15 11:15:36;;;;;;;2.70;2.50;;;25.00;58.70;;;;;;222660;1266;22555;-53
2023/06/15 11:21:01;;;;;;;4.80;2.50;;;25.10;59.20;;;;;;222627;1267;25210;-56
2023/06/15 11:26:06;;;;;;;2.70;2.50;;;25.10;59.10;;;;;;222476;1259;22787;-53
2023/06/15 11:31:13;;;;;;;2.50;2.30;;;25.00;58.20;;;;;;222304;1262;24239;-52
2023/06/15 11:36:18;;;;;;;3.00;2.60;;;25.10;58.40;;;;;;222413;1259;22519;-55
2023/06/15 11:41:22;;;;;;;2.60;2.40;;;25.00;58.30;;;;;;222360;1266;23697;-58
2023/06/15 11:46:26;;;;;;;2.30;2.10;;;25.00;59.10;;;;;;222277;1263;25379;-57
2023/06/15 11:51:31;;;;;;;3.10;2.80;;;25.10;58.50;;;;;;222674;1260;22640;-51
2023/06/15 11:56:35;;;;;;;3.20;2.40;;;25.00;57.50;;;;;;221278;1251;23456;-51
2023/06/15 12:01:40;;;;;;;2.50;2.20;;;25.10;58.70;;;;;;221250;1261;22517;-58
2023/06/15 12:06:46;;;;;;;3.60;2.40;;;25.10;57.80;;;;;;221219;1267;25521;-56
2023/06/15 12:11:50;;;;;;;3.90;2.20;;;25.20;58.30;;;;;;221435;1259;24244;-52
2023/06/15 12:16:58;;;;;;;2.30;2.10;;;25.20;55.70;;;;;;222541;1267;24369;-51
2023/06/15 12:22:02;;;;;;;2.90;2.40;;;25.20;57.60;;;;;;222492;1265;24269;-53
2023/06/15 12:27:15;;;;;;;3.10;2.60;;;25.20;54.90;;;;;;222384;1267;22498;-53
2023/06/15 12:32:24;;;;;;;2.80;2.60;;;25.20;55.40;;;;;;221341;1269;22530;-51
2023/06/15 12:37:29;;;;;;;3.00;2.80;;;25.20;55.90;;;;;;221181;1272;22519;-54
2023/06/15 12:43:03;;;;;;;3.00;2.80;;;25.20;55.90;;;;;;221177;1273;24190;-51
2023/06/15 12:48:07;;;;;;;2.80;2.60;;;25.30;55.40;;;;;;221621;1269;24365;-58
2023/06/15 12:53:11;;;;;;;2.80;2.60;;;25.20;55.90;;;;;;222392;1267;24221;-56
2023/06/15 12:58:16;;;;;;;2.60;2.40;;;25.20;55.30;;;;;;222301;1254;22509;-54
2023/06/15 13:03:22;;;;;;;2.90;2.60;;;25.20;56.20;;;;;;222450;1267;22756;-56
2023/06/15 13:08:29;;;;;;;4.30;2.80;;;25.20;54.80;;;;;;222350;1261;22591;-53
2023/06/15 13:13:33;;;;;;;5.30;2.80;;;25.20;56.20;;;;;;222551;1267;22634;-58
2023/06/15 13:18:37;;;;;;;3.60;2.80;;;25.40;55.40;;;;;;222397;1254;22518;-52
2023/06/15 13:23:41;;;;;;;5.70;2.80;;;25.40;55.50;;;;;;222553;1267;22517;-54
2023/06/15 13:28:46;;;;;;;3.20;2.70;;;25.40;55.30;;;;;;222028;1265;24741;-56
2023/06/15 13:33:50;;;;;;;6.70;3.20;;;25.30;55.90;;;;;;222517;1261;22768;-56
2023/06/15 13:38:54;;;;;;;3.90;2.50;;;25.50;52.50;;;;;;222571;1257;23900;-57
2023/06/15 13:43:59;;;;;;;5.70;3.30;;;25.50;54.60;;;;;;222515;1265;25367;-53
2023/06/15 13:49:06;;;;;;;3.30;3.00;;;25.60;51.70;;;;;;222520;1266;22514;-55
2023/06/15 13:54:10;;;;;;;4.10;2.90;;;25.60;52.20;;;;;;222849;1263;25318;-54
2023/06/15 13:59:14;;;;;;;4.00;3.00;;;25.50;54.00;;;;;;222588;1261;22767;-56
2023/06/15 14:04:18;;;;;;;3.70;2.80;;;25.50;53.10;;;;;;222427;1254;22522;-52
2023/06/15 14:09:22;;;;;;;5.20;3.10;;;25.40;53.50;;;;;;222380;1254;24944;-49
2023/06/15 14:14:27;;;;;;;3.80;3.00;;;25.30;54.50;;;;;;222192;1267;264063;-60
2023/06/15 14:19:32;;;;;;;3.50;3.10;;;25.30;55.00;;;;;;222241;1248;25384;-55
2023/06/15 14:24:36;;;;;;;2.90;2.70;;;25.20;54.80;;;;;;222383;1269;25351;-54
2023/06/15 14:29:45;;;;;;;3.00;2.70;;;25.20;55.10;;;;;;222160;1265;24122;-58
2023/06/15 14:34:50;;;;;;;3.90;3.00;;;25.20;55.30;;;;;;222579;1254;22522;-53
2023/06/15 14:39:54;;;;;;;4.00;3.00;;;25.40;55.00;;;;;;222638;1264;22667;-51
2023/06/15 14:44:58;;;;;;;5.80;3.00;;;25.40;55.40;;;;;;222481;1267;22605;-50
2023/06/15 14:50:03;;;;;;;3.10;2.90;;;25.40;55.30;;;;;;222681;1264;25316;-53
2023/06/15 14:55:08;;;;;;;2.80;2.50;;;25.40;55.30;;;;;;222677;1266;22623;-55
2023/06/15 15:00:14;;;;;;;2.90;2.70;;;25.30;55.10;;;;;;222626;1244;25434;-54
2023/06/15 15:05:19;;;;;;;2.90;2.50;;;25.30;55.30;;;;;;222742;1267;22798;-55
2023/06/15 15:10:23;;;;;;;25.70;4.80;;;25.30;55.20;;;;;;222509;1267;24218;-54
2023/06/15 15:15:29;;;;;;;9.70;3.40;;;25.30;56.40;;;;;;222500;1264;25377;-55
2023/06/15 15:20:33;;;;;;;6.80;3.30;;;25.30;56.80;;;;;;222588;1267;22540;-52
2023/06/15 15:25:38;;;;;;;6.10;3.40;;;25.40;57.70;;;;;;222378;1267;25268;-52
2023/06/15 15:30:42;;;;;;;7.90;3.20;;;25.70;60.50;;;;;;222773;1267;25546;-51
2023/06/15 15:35:47;;;;;;;10.10;4.10;;;25.60;60.30;;;;;;222478;1261;22518;-50
2023/06/15 15:40:51;;;;;;;6.90;3.50;;;25.50;60.50;;;;;;222158;1260;24094;-53
2023/06/15 15:45:55;;;;;;;14.30;3.50;;;25.50;62.10;;;;;;222312;1252;22525;-51
2023/06/15 15:50:59;;;;;;;17.60;4.80;;;25.60;64.00;;;;;;222358;1255;25447;-52
2023/06/15 15:56:06;;;;;;;12.70;4.90;;;25.50;62.10;;;;;;230098;1267;25326;-45
2023/06/15 16:01:14;;;;;;;15.30;5.50;;;25.70;60.90;;;;;;222852;1258;22573;-50
2023/06/15 16:06:21;;;;;;;15.00;4.40;;;25.80;59.30;;;;;;222830;1254;22519;-57
2023/06/15 16:11:27;;;;;;;11.10;4.50;;;25.90;60.20;;;;;;222375;1254;25263;-53
2023/06/15 16:16:33;;;;;;;10.00;4.20;;;25.80;59.60;;;;;;222752;1260;25268;-56
2023/06/15 16:21:41;;;;;;;10.10;4.00;;;25.80;59.60;;;;;;222628;1261;22530;-56
2023/06/15 16:26:47;;;;;;;12.40;4.40;;;25.70;59.80;;;;;;221221;1261;24203;-59
2023/06/15 16:31:53;;;;;;;12.40;4.60;;;25.80;60.70;;;;;;221217;1261;24195;-54
2023/06/15 16:36:59;;;;;;;7.40;4.20;;;25.80;59.80;;;;;;221551;1253;26750;-55
2023/06/15 16:42:06;;;;;;;8.30;3.80;;;25.80;59.40;;;;;;221508;1267;22704;-60
2023/06/15 16:47:11;;;;;;;7.20;4.10;;;25.90;59.50;;;;;;222455;1264;22523;-55
2023/06/15 16:52:19;;;;;;;7.90;4.60;;;25.90;59.70;;;;;;222240;1253;22598;-56
2023/06/15 16:57:25;;;;;;;10.50;4.30;;;25.90;59.40;;;;;;222434;1256;25246;-58
2023/06/15 17:02:31;;;;;;;7.50;3.80;;;25.90;59.30;;;;;;222331;1260;25429;-49
2023/06/15 17:07:42;;;;;;;8.20;4.30;;;25.80;59.10;;;;;;222409;1261;22631;-56
2023/06/15 17:12:48;;;;;;;10.60;4.00;;;25.80;59.00;;;;;;222416;1257;22563;-60
2023/06/15 17:17:55;;;;;;;12.50;4.00;;;26.00;59.30;;;;;;222323;1265;22628;-55
2023/06/15 17:23:00;;;;;;;13.00;4.00;;;25.80;59.80;;;;;;222128;1262;22547;-61
2023/06/15 17:28:04;;;;;;;6.70;3.60;;;26.00;59.00;;;;;;225012;1267;24427;-60
2023/06/15 17:33:09;;;;;;;7.90;3.80;;;26.00;58.70;;;;;;222595;1261;25582;-60
2023/06/15 17:38:13;;;;;;;13.30;4.20;;;26.00;58.80;;;;;;222425;1255;22512;-59
2023/06/15 17:43:17;;;;;;;10.10;4.10;;;26.00;58.80;;;;;;222065;1262;24216;-61
2023/06/15 17:48:22;;;;;;;13.20;3.80;;;25.90;58.90;;;;;;222375;1258;22529;-58
2023/06/15 17:53:27;;;;;;;8.30;3.10;;;26.00;58.90;;;;;;222240;1254;23630;-55
2023/06/15 17:58:32;;;;;;;8.80;3.70;;;25.80;58.90;;;;;;222310;1266;22525;-56
2023/06/15 18:03:39;;;;;;;13.80;4.20;;;25.80;59.30;;;;;;222172;1265;22540;-55
2023/06/15 18:08:44;;;;;;;6.40;3.70;;;25.70;59.70;;;;;;222437;1266;22517;-53
2023/06/15 18:13:51;;;;;;;13.80;4.20;;;25.60;59.50;;;;;;222589;1262;22537;-54
2023/06/15 18:18:56;;;;;;;11.60;4.00;;;25.70;60.00;;;;;;222234;1253;23893;-55
2023/06/15 18:24:00;;;;;;;10.80;3.80;;;25.60;59.70;;;;;;222831;1260;24136;-58
2023/06/15 18:29:05;;;;;;;4.80;3.20;;;25.60;59.60;;;;;;222357;1260;22823;-55
2023/06/15 18:34:13;;;;;;;15.80;3.80;;;25.60;58.90;;;;;;222656;1256;24311;-59
2023/06/15 18:39:18;;;;;;;15.10;4.00;;;25.60;59.50;;;;;;222621;1254;25471;-55
2023/06/15 18:44:22;;;;;;;15.80;4.50;;;25.50;59.50;;;;;;222404;1252;24752;-54
2023/06/15 18:49:27;;;;;;;12.40;3.60;;;25.40;59.50;;;;;;222371;1255;23955;-57
2023/06/15 18:54:31;;;;;;;10.60;4.90;;;25.50;59.60;;;;;;222585;1267;22517;-54
2023/06/15 18:59:36;;;;;;;13.10;4.30;;;25.60;60.50;;;;;;222340;1264;22511;-56
2023/06/15 19:04:40;;;;;;;7.20;4.00;;;25.40;61.50;;;;;;222127;1254;22528;-58
2023/06/15 19:09:44;;;;;;;7.50;4.30;;;25.60;60.30;;;;;;222474;1258;25467;-55
2023/06/15 19:14:48;;;;;;;13.80;4.90;;;25.50;60.20;;;;;;222411;1255;22518;-56
2023/06/15 19:19:53;;;;;;;9.70;4.00;;;25.50;60.30;;;;;;222258;1252;22535;-56
2023/06/15 19:24:57;;;;;;;8.50;4.50;;;25.60;59.90;;;;;;222410;1252;22517;-57
2023/06/15 19:30:02;;;;;;;20.80;4.00;;;25.60;60.40;;;;;;222127;1253;22638;-56
2023/06/15 19:35:07;;;;;;;13.60;4.00;;;25.50;60.70;;;;;;222496;1245;22624;-57
2023/06/15 19:40:13;;;;;;;11.10;3.90;;;25.40;61.70;;;;;;222262;1257;24183;-54
2023/06/15 19:45:18;;;;;;;14.70;3.50;;;25.40;60.80;;;;;;222166;1258;24229;-55
2023/06/15 19:50:22;;;;;;;22.40;4.30;;;25.40;61.20;;;;;;222459;1256;24158;-57
2023/06/15 19:55:27;;;;;;;10.80;4.10;;;25.40;60.80;;;;;;222175;1249;24398;-55
2023/06/15 20:00:32;;;;;;;11.60;4.30;;;25.40;60.60;;;;;;222517;1253;22510;-53
2023/06/15 20:05:36;;;;;;;12.70;4.00;;;25.40;60.40;;;;;;222484;1264;25360;-55
2023/06/15 20:10:42;;;;;;;15.40;3.90;;;25.50;60.50;;;;;;222320;1252;22709;-57
2023/06/15 20:15:46;;;;;;;8.20;3.50;;;25.40;60.50;;;;;;222559;1260;22696;-55
2023/06/15 20:20:51;;;;;;;10.80;3.30;;;25.40;60.50;;;;;;222271;1253;26677;-53
2023/06/15 20:25:55;;;;;;;6.90;3.40;;;25.30;60.50;;;;;;222375;1262;22616;-53
2023/06/15 20:31:04;;;;;;;7.50;3.60;;;25.30;59.60;;;;;;222605;1267;22566;-54
2023/06/15 20:36:08;;;;;;;9.00;3.60;;;25.30;59.60;;;;;;222306;1265;22574;-54
2023/06/15 20:41:13;;;;;;;4.10;3.40;;;25.30;59.70;;;;;;222437;1264;22753;-55
2023/06/15 20:46:18;;;;;;;5.90;3.30;;;25.30;59.70;;;;;;222281;1262;22515;-56
2023/06/15 20:51:25;;;;;;;6.70;3.70;;;25.20;59.70;;;;;;222291;1262;24186;-54
2023/06/15 20:56:29;;;;;;;6.30;3.40;;;25.30;59.50;;;;;;222567;1265;22566;-55
2023/06/15 21:01:34;;;;;;;3.40;3.00;;;25.30;59.60;;;;;;222541;1259;23905;-55
2023/06/15 21:06:39;;;;;;;6.30;3.30;;;25.20;59.50;;;;;;222562;1262;22585;-53
2023/06/15 21:11:43;;;;;;;7.30;3.10;;;25.20;59.90;;;;;;222489;1254;22697;-53
2023/06/15 21:16:49;;;;;;;3.30;3.00;;;25.20;59.80;;;;;;222285;1263;23883;-52
2023/06/15 21:21:53;;;;;;;4.50;3.30;;;25.20;59.20;;;;;;222435;1249;25511;-55
2023/06/15 21:26:58;;;;;;;3.40;2.70;;;25.20;59.20;;;;;;222433;1264;22639;-54
2023/06/15 21:32:03;;;;;;;5.10;2.90;;;25.20;59.40;;;;;;222415;1262;22539;-56
2023/06/15 21:37:08;;;;;;;16.90;3.40;;;25.20;59.70;;;;;;222478;1257;25316;-56
2023/06/15 21:42:13;;;;;;;5.00;3.00;;;25.20;59.30;;;;;;222045;1258;22518;-53
2023/06/15 21:47:18;;;;;;;4.50;3.10;;;25.20;59.20;;;;;;222707;1256;24250;-54
2023/06/15 21:52:22;;;;;;;3.90;2.60;;;25.10;59.50;;;;;;222595;1261;22604;-53
2023/06/15 21:57:26;;;;;;;4.90;3.20;;;25.10;59.50;;;;;;222674;1249;22643;-53
2023/06/15 22:02:30;;;;;;;4.00;3.10;;;25.10;59.30;;;;;;222471;1260;23923;-53
2023/06/15 22:07:35;;;;;;;8.00;3.00;;;25.10;59.30;;;;;;223394;1265;23936;-52
2023/06/15 22:12:40;;;;;;;5.10;3.00;;;25.00;59.40;;;;;;222564;1263;22507;-54
2023/06/15 22:17:45;;;;;;;3.70;2.90;;;25.00;59.50;;;;;;222698;1265;22967;-53
2023/06/15 22:22:49;;;;;;;7.80;3.50;;;25.00;59.80;;;;;;222516;1267;24364;-54
2023/06/15 22:27:54;;;;;;;4.40;4.00;;;25.00;59.30;;;;;;222393;1267;22624;-54
2023/06/15 22:33:01;;;;;;;3.00;2.80;;;24.90;59.50;;;;;;222670;1255;22832;-55
2023/06/15 22:38:06;;;;;;;6.40;3.10;;;25.10;59.80;;;;;;222644;1255;22718;-55
2023/06/15 22:43:14;;;;;;;3.10;2.80;;;24.90;59.80;;;;;;222639;1267;22514;-54
2023/06/15 22:48:24;;;;;;;4.20;3.00;;;24.90;59.10;;;;;;222807;1252;22461;-56
2023/06/15 22:53:31;;;;;;;5.30;3.00;;;25.00;61.00;;;;;;224982;1267;23058;-53
2023/06/15 22:58:39;;;;;;;;;;;25.10;62.50;;;;;;228001;1256;22497;-47
2023/06/15 23:03:44;;;;;;;4.50;2.80;;;25.10;62.20;;;;;;222720;1266;22518;-51
2023/06/15 23:08:55;;;;;;;4.10;2.80;;;25.10;62.50;;;;;;222884;1268;24206;-47
2023/06/15 23:14:01;;;;;;;5.20;2.80;;;25.00;62.50;;;;;;222592;1267;24132;-49
2023/06/15 23:19:13;;;;;;;6.10;3.30;;;24.90;62.60;;;;;;222756;1265;22503;-48
2023/06/15 23:24:19;;;;;;;4.90;3.30;;;24.90;62.50;;;;;;222697;1254;22560;-48
2023/06/15 23:29:25;;;;;;;4.60;2.90;;;24.90;63.00;;;;;;222545;1265;23197;-47
2023/06/15 23:34:32;;;;;;;3.60;2.90;;;24.80;62.50;;;;;;222541;1258;25129;-45
2023/06/15 23:39:38;;;;;;;3.20;2.90;;;24.80;63.00;;;;;;222850;1256;22521;-45
2023/06/15 23:44:43;;;;;;;4.50;2.50;;;24.80;62.70;;;;;;222781;1267;22514;-44
2023/06/15 23:49:53;;;;;;;2.80;2.60;;;24.80;62.30;;;;;;222446;1265;25506;-46
2023/06/15 23:54:57;;;;;;;4.50;2.80;;;24.80;62.90;;;;;;222591;1253;24254;-47
